createdAt,value
2023-05-21T00:00:57.993Z,11.91
2023-05-21T00:03:27.159Z,11.93
2023-05-21T00:05:54.571Z,11.85
2023-05-21T00:08:21.482Z,11.80
2023-05-21T00:10:48.154Z,11.73
2023-05-21T00:13:14.914Z,11.76
2023-05-21T00:15:41.652Z,11.74
2023-05-21T00:18:08.283Z,11.72
2023-05-21T00:20:35.544Z,11.72
2023-05-21T00:23:02.972Z,11.74
2023-05-21T00:25:30.298Z,11.65
2023-05-21T00:27:57.082Z,11.72
2023-05-21T00:30:24.803Z,11.79
2023-05-21T00:32:51.419Z,11.80
2023-05-21T00:35:18.452Z,11.59
2023-05-21T00:37:45.446Z,11.42
2023-05-21T00:40:12.891Z,11.32
2023-05-21T00:42:39.614Z,11.24
2023-05-21T00:45:08.409Z,11.11
2023-05-21T00:47:36.046Z,11.12
2023-05-21T00:50:04.927Z,11.10
2023-05-21T00:52:31.561Z,11.16
2023-05-21T00:54:58.495Z,11.16
2023-05-21T00:57:27.253Z,11.29
2023-05-21T00:59:54.397Z,11.27
2023-05-21T01:02:24.010Z,11.20
2023-05-21T01:04:52.065Z,11.13
2023-05-21T01:07:18.769Z,11.11
2023-05-21T01:09:45.691Z,11.01
2023-05-21T01:12:14.004Z,10.99
2023-05-21T01:14:42.132Z,10.95
2023-05-21T01:17:10.551Z,10.87
2023-05-21T01:19:37.813Z,10.85
2023-05-21T01:22:07.841Z,10.91
2023-05-21T01:24:35.529Z,10.98
2023-05-21T01:27:06.721Z,10.96
2023-05-21T01:29:33.834Z,10.91
2023-05-21T01:32:10.053Z,10.80
2023-05-21T01:35:11.219Z,10.70
2023-05-21T01:37:41.675Z,10.62
2023-05-21T01:40:29.888Z,10.55
2023-05-21T01:42:58.501Z,10.52
2023-05-21T01:45:27.972Z,10.43
2023-05-21T01:47:56.642Z,10.43
2023-05-21T01:50:27.000Z,10.47
2023-05-21T01:52:56.978Z,10.49
2023-05-21T01:55:33.260Z,10.51
2023-05-21T01:58:02.336Z,10.57
2023-05-21T02:00:30.950Z,10.59
2023-05-21T02:02:58.725Z,10.61
2023-05-21T02:05:26.148Z,10.72
2023-05-21T02:07:52.809Z,10.76
2023-05-21T02:10:19.736Z,10.76
2023-05-21T02:12:46.917Z,10.82
2023-05-21T02:15:18.148Z,10.74
2023-05-21T02:17:46.337Z,10.59
2023-05-21T02:20:14.631Z,10.50
2023-05-21T02:22:44.476Z,10.50
2023-05-21T02:25:12.882Z,10.43
2023-05-21T02:27:40.684Z,10.47
2023-05-21T02:30:09.467Z,10.49
2023-05-21T02:32:37.237Z,10.57
2023-05-21T02:35:04.877Z,10.62
2023-05-21T02:37:35.051Z,10.62
2023-05-21T02:40:07.247Z,10.53
2023-05-21T02:42:36.635Z,10.46
2023-05-21T02:45:03.739Z,10.44
2023-05-21T02:47:30.791Z,10.42
2023-05-21T02:50:00.266Z,10.44
2023-05-21T02:52:27.579Z,10.46
2023-05-21T02:54:54.300Z,10.46
2023-05-21T02:57:21.194Z,10.47
2023-05-21T02:59:48.052Z,10.46
2023-05-21T03:02:14.893Z,10.37
2023-05-21T03:04:45.992Z,10.37
2023-05-21T03:07:14.477Z,10.34
2023-05-21T03:09:42.457Z,10.34
2023-05-21T03:12:10.279Z,10.21
2023-05-21T03:14:37.349Z,10.23
2023-05-21T03:17:08.061Z,10.23
2023-05-21T03:19:36.540Z,10.20
2023-05-21T03:22:05.169Z,10.17
2023-05-21T03:24:35.327Z,10.13
2023-05-21T03:27:02.415Z,10.05
2023-05-21T03:29:29.373Z,9.99
2023-05-21T03:31:56.825Z,9.98
2023-05-21T03:34:24.297Z,10.01
2023-05-21T03:36:51.257Z,10.00
2023-05-21T03:39:18.840Z,9.96
2023-05-21T03:41:45.932Z,9.97
2023-05-21T03:44:20.750Z,10.03
2023-05-21T03:47:03.683Z,9.95
2023-05-21T03:49:33.471Z,9.88
2023-05-21T03:52:00.225Z,9.88
2023-05-21T03:54:27.736Z,9.91
2023-05-21T03:56:59.892Z,9.91
2023-05-21T03:59:27.886Z,9.84
2023-05-21T04:01:55.411Z,9.75
2023-05-21T04:04:22.091Z,9.75
2023-05-21T04:06:49.742Z,9.75
2023-05-21T04:09:16.678Z,9.79
2023-05-21T04:11:43.415Z,9.79
2023-05-21T04:14:10.671Z,9.83
2023-05-21T04:16:38.868Z,9.77
2023-05-21T04:19:06.627Z,9.81
2023-05-21T04:21:33.679Z,9.86
2023-05-21T04:24:01.052Z,9.96
2023-05-21T04:26:42.611Z,10.11
2023-05-21T04:29:10.053Z,10.19
2023-05-21T04:31:37.066Z,10.26
2023-05-21T04:34:04.397Z,10.32
2023-05-21T04:36:31.495Z,10.24
2023-05-21T04:38:58.233Z,10.30
2023-05-21T04:41:24.877Z,10.29
2023-05-21T04:43:55.129Z,10.35
2023-05-21T04:46:27.214Z,10.40
2023-05-21T04:48:58.037Z,10.43
2023-05-21T04:51:24.985Z,10.51
2023-05-21T04:53:52.126Z,10.57
2023-05-21T04:56:18.900Z,10.63
2023-05-21T04:58:48.030Z,10.67
2023-05-21T05:01:15.882Z,10.72
2023-05-21T05:03:42.806Z,10.81
2023-05-21T05:06:09.634Z,10.92
2023-05-21T05:08:36.482Z,11.05
2023-05-21T05:11:04.015Z,11.15
2023-05-21T05:13:30.954Z,11.24
2023-05-21T05:15:57.791Z,11.37
2023-05-21T05:18:24.646Z,11.47
2023-05-21T05:20:51.613Z,11.56
2023-05-21T05:23:18.610Z,11.62
2023-05-21T05:25:45.692Z,11.66
2023-05-21T05:28:12.411Z,11.75
2023-05-21T05:30:39.137Z,11.83
2023-05-21T05:33:16.182Z,11.83
2023-05-21T05:35:42.819Z,11.87
2023-05-21T05:38:09.619Z,11.95
2023-05-21T05:40:37.191Z,12.08
2023-05-21T05:43:04.012Z,12.23
2023-05-21T05:45:30.910Z,12.40
2023-05-21T05:47:57.853Z,12.53
2023-05-21T05:50:24.520Z,12.64
2023-05-21T05:52:51.888Z,12.68
2023-05-21T05:55:18.736Z,12.82
2023-05-21T05:57:45.410Z,12.97
2023-05-21T06:00:15.286Z,13.04
2023-05-21T06:02:48.196Z,13.25
2023-05-21T06:05:15.499Z,13.37
2023-05-21T06:07:42.238Z,13.50
2023-05-21T06:10:09.305Z,13.66
2023-05-21T06:12:36.023Z,13.61
2023-05-21T06:15:03.000Z,13.39
2023-05-21T06:17:31.676Z,13.75
2023-05-21T06:19:58.420Z,14.03
2023-05-21T06:22:27.390Z,14.13
2023-05-21T06:24:54.794Z,14.27
2023-05-21T06:27:21.445Z,14.45
2023-05-21T06:29:49.323Z,14.29
2023-05-21T06:32:16.107Z,14.12
2023-05-21T06:34:42.874Z,14.35
2023-05-21T06:37:09.927Z,14.38
2023-05-21T06:39:36.553Z,14.62
2023-05-21T06:42:03.606Z,14.98
2023-05-21T06:44:46.156Z,14.95
2023-05-21T06:47:42.090Z,14.97
2023-05-21T06:50:09.230Z,15.26
2023-05-21T06:52:36.095Z,15.50
2023-05-21T06:55:03.389Z,15.62
2023-05-21T06:57:48.096Z,15.96
2023-05-21T07:00:14.990Z,16.04
2023-05-21T07:02:42.509Z,16.18
2023-05-21T07:05:09.709Z,16.14
2023-05-21T07:07:36.848Z,16.26
2023-05-21T07:10:04.090Z,16.37
2023-05-21T07:12:31.029Z,16.63
2023-05-21T07:14:59.285Z,16.83
2023-05-21T07:17:27.107Z,16.89
2023-05-21T07:19:54.015Z,16.77
2023-05-21T07:22:20.966Z,17.16
2023-05-21T07:24:47.579Z,17.33
2023-05-21T07:27:25.327Z,17.60
2023-05-21T07:29:53.858Z,17.90
2023-05-21T07:32:21.061Z,17.90
2023-05-21T07:34:48.426Z,17.97
2023-05-21T07:37:15.395Z,17.79
2023-05-21T07:39:42.095Z,17.88
2023-05-21T07:42:10.516Z,17.64
2023-05-21T07:44:37.149Z,18.02
2023-05-21T07:47:04.268Z,18.47
2023-05-21T07:49:31.007Z,18.76
2023-05-21T07:51:58.135Z,18.93
2023-05-21T07:54:24.951Z,19.07
2023-05-21T07:56:52.146Z,19.24
2023-05-21T07:59:38.733Z,19.61
2023-05-21T08:02:05.727Z,19.67
2023-05-21T08:04:32.737Z,19.35
2023-05-21T08:06:59.809Z,19.86
2023-05-21T08:09:26.429Z,20.01
2023-05-21T08:11:53.235Z,20.17
2023-05-21T08:14:20.867Z,20.30
2023-05-21T08:16:48.383Z,20.68
2023-05-21T08:19:15.500Z,20.79
2023-05-21T08:21:42.460Z,20.87
2023-05-21T08:24:11.003Z,20.67
2023-05-21T08:26:37.867Z,20.24
2023-05-21T08:29:04.707Z,20.42
2023-05-21T08:31:31.535Z,20.31
2023-05-21T08:33:58.356Z,20.39
2023-05-21T08:36:36.919Z,20.52
2023-05-21T08:39:09.030Z,20.60
2023-05-21T08:41:40.212Z,20.66
2023-05-21T08:44:12.524Z,21.08
2023-05-21T08:46:43.402Z,21.19
2023-05-21T08:49:13.293Z,21.19
2023-05-21T08:51:41.693Z,21.75
2023-05-21T08:54:09.489Z,21.80
2023-05-21T08:56:37.002Z,21.75
2023-05-21T08:59:03.759Z,21.87
2023-05-21T09:01:35.577Z,21.75
2023-05-21T09:04:29.022Z,21.93
2023-05-21T09:06:58.070Z,22.13
2023-05-21T09:09:53.294Z,22.03
2023-05-21T09:12:20.518Z,22.12
2023-05-21T09:14:47.807Z,22.38
2023-05-21T09:17:17.982Z,22.21
2023-05-21T09:20:12.135Z,22.29
2023-05-21T09:22:44.606Z,22.15
2023-05-21T09:25:13.661Z,22.23
2023-05-21T09:27:40.586Z,22.43
2023-05-21T09:30:12.864Z,22.63
2023-05-21T09:32:40.904Z,22.72
2023-05-21T09:35:10.170Z,22.81
2023-05-21T09:37:38.277Z,23.02
2023-05-21T09:40:15.276Z,22.93
2023-05-21T09:42:49.844Z,22.86
2023-05-21T09:45:23.208Z,22.84
2023-05-21T09:47:53.022Z,23.04
2023-05-21T09:50:21.956Z,22.94
2023-05-21T09:52:50.648Z,23.21
2023-05-21T09:55:17.482Z,23.20
2023-05-21T09:57:49.875Z,23.10
2023-05-21T10:00:27.579Z,23.46
2023-05-21T10:02:55.908Z,23.46
2023-05-21T10:05:28.060Z,23.71
2023-05-21T10:08:01.032Z,23.96
2023-05-21T10:10:29.181Z,23.86
2023-05-21T10:13:00.818Z,23.98
2023-05-21T10:15:30.632Z,24.05
2023-05-21T10:17:58.943Z,24.15
2023-05-21T10:20:26.070Z,24.24
2023-05-21T10:22:53.488Z,24.46
2023-05-21T10:25:20.904Z,24.17
2023-05-21T10:27:48.874Z,24.08
2023-05-21T10:30:18.201Z,23.94
2023-05-21T10:32:47.991Z,24.17
2023-05-21T10:35:16.725Z,24.00
2023-05-21T10:37:46.366Z,23.78
2023-05-21T10:40:13.667Z,23.67
2023-05-21T10:43:11.521Z,23.66
2023-05-21T10:46:15.792Z,23.95
2023-05-21T10:48:58.014Z,24.13
2023-05-21T10:51:45.102Z,24.56
2023-05-21T10:54:41.858Z,24.65
2023-05-21T10:57:08.493Z,24.48
2023-05-21T10:59:43.381Z,24.93
2023-05-21T11:02:12.924Z,24.60
2023-05-21T11:04:42.460Z,24.66
2023-05-21T11:07:09.484Z,24.76
2023-05-21T11:09:36.490Z,25.03
2023-05-21T11:12:04.673Z,24.99
2023-05-21T11:14:43.020Z,25.10
2023-05-21T11:17:11.203Z,25.51
2023-05-21T11:19:43.879Z,25.55
2023-05-21T11:22:27.451Z,25.27
2023-05-21T11:24:56.202Z,25.51
2023-05-21T11:27:33.846Z,25.54
2023-05-21T11:30:08.090Z,25.51
2023-05-21T11:33:11.262Z,25.96
2023-05-21T11:35:50.196Z,25.92
2023-05-21T11:38:18.088Z,25.92
2023-05-21T11:40:54.936Z,25.67
2023-05-21T11:43:22.283Z,25.86
2023-05-21T11:45:52.325Z,25.75
2023-05-21T11:48:21.265Z,26.32
2023-05-21T11:50:48.259Z,26.26
2023-05-21T11:53:15.560Z,26.58
2023-05-21T11:55:43.720Z,26.52
2023-05-21T11:58:16.794Z,27.04
2023-05-21T12:00:43.646Z,27.44
2023-05-21T12:03:14.271Z,27.12
2023-05-21T12:05:48.465Z,28.27
2023-05-21T12:08:25.422Z,28.96
2023-05-21T12:10:59.064Z,27.87
2023-05-21T12:13:26.216Z,27.50
2023-05-21T12:15:54.309Z,27.96
2023-05-21T12:18:21.645Z,27.53
2023-05-21T12:20:48.493Z,26.73
2023-05-21T12:23:23.993Z,26.75
2023-05-21T12:25:51.671Z,26.79
2023-05-21T12:28:18.587Z,26.94
2023-05-21T12:30:45.552Z,26.88
2023-05-21T12:33:14.218Z,27.66
2023-05-21T12:35:40.998Z,27.91
2023-05-21T12:38:09.817Z,28.61
2023-05-21T12:40:38.406Z,29.08
2023-05-21T12:43:06.227Z,29.08
2023-05-21T12:45:33.647Z,29.26
2023-05-21T12:48:03.542Z,28.77
2023-05-21T12:50:30.237Z,28.95
2023-05-21T12:52:58.516Z,29.63
2023-05-21T12:55:28.667Z,30.82
2023-05-21T12:58:08.302Z,31.10
2023-05-21T13:00:35.732Z,31.84
2023-05-21T13:03:04.594Z,31.42
2023-05-21T13:05:31.708Z,31.33
2023-05-21T13:07:58.443Z,31.49
2023-05-21T13:10:25.373Z,31.83
2023-05-21T13:12:51.940Z,32.78
2023-05-21T13:15:19.053Z,33.26
2023-05-21T13:17:47.231Z,33.57
2023-05-21T13:20:21.841Z,34.58
2023-05-21T13:22:51.155Z,34.78
2023-05-21T13:25:24.507Z,33.68
2023-05-21T13:27:52.604Z,33.93
2023-05-21T13:30:20.571Z,32.85
2023-05-21T13:32:47.784Z,32.49
2023-05-21T13:35:16.475Z,31.89
2023-05-21T13:37:43.332Z,32.58
2023-05-21T13:40:12.355Z,32.72
2023-05-21T13:42:39.162Z,33.12
2023-05-21T13:45:07.689Z,33.58
2023-05-21T13:47:37.442Z,33.72
2023-05-21T13:50:06.479Z,33.73
2023-05-21T13:52:33.239Z,33.88
2023-05-21T13:54:59.991Z,34.10
2023-05-21T13:57:31.178Z,33.68
2023-05-21T13:59:58.859Z,34.42
2023-05-21T14:02:26.402Z,34.96
2023-05-21T14:04:53.998Z,34.16
2023-05-21T14:07:21.600Z,34.37
2023-05-21T14:09:48.661Z,33.85
2023-05-21T14:12:15.690Z,33.90
2023-05-21T14:14:42.471Z,34.44
2023-05-21T14:17:09.699Z,33.86
2023-05-21T14:19:36.416Z,32.26
2023-05-21T14:22:03.230Z,31.26
2023-05-21T14:24:29.844Z,30.71
2023-05-21T14:26:56.802Z,30.88
2023-05-21T14:29:23.390Z,31.99
2023-05-21T14:31:50.327Z,32.21
2023-05-21T14:34:17.769Z,32.86
2023-05-21T14:36:44.476Z,34.14
2023-05-21T14:39:11.218Z,34.70
2023-05-21T14:41:39.729Z,34.77
2023-05-21T14:44:06.820Z,34.65
2023-05-21T14:46:33.664Z,34.21
2023-05-21T14:49:00.798Z,34.49
2023-05-21T14:51:27.523Z,34.30
2023-05-21T14:53:54.382Z,34.62
2023-05-21T14:56:22.119Z,35.28
2023-05-21T14:58:49.344Z,34.66
2023-05-21T15:01:16.155Z,34.96
2023-05-21T15:03:43.392Z,35.27
2023-05-21T15:06:10.337Z,34.70
2023-05-21T15:08:37.048Z,33.83
2023-05-21T15:11:03.804Z,33.64
2023-05-21T15:13:30.932Z,33.48
2023-05-21T15:15:57.601Z,33.49
2023-05-21T15:18:24.853Z,33.41
2023-05-21T15:20:52.005Z,33.62
2023-05-21T15:23:18.861Z,33.49
2023-05-21T15:25:46.199Z,33.91
2023-05-21T15:28:13.041Z,33.75
2023-05-21T15:30:40.502Z,33.53
2023-05-21T15:33:07.593Z,33.41
2023-05-21T15:35:37.983Z,33.55
2023-05-21T15:38:05.090Z,33.52
2023-05-21T15:40:32.396Z,32.68
2023-05-21T15:42:59.253Z,32.70
2023-05-21T15:45:26.062Z,32.81
2023-05-21T15:47:52.975Z,32.43
2023-05-21T15:50:19.823Z,32.43
2023-05-21T15:52:46.840Z,32.58
2023-05-21T15:55:14.171Z,32.35
2023-05-21T15:57:41.033Z,32.40
2023-05-21T16:00:09.342Z,31.99
2023-05-21T16:02:36.472Z,31.81
2023-05-21T16:05:03.469Z,31.44
2023-05-21T16:07:30.148Z,31.31
2023-05-21T16:09:57.022Z,30.72
2023-05-21T16:12:23.653Z,30.99
2023-05-21T16:14:50.390Z,29.74
2023-05-21T16:17:18.207Z,29.10
2023-05-21T16:19:44.863Z,28.31
2023-05-21T16:22:11.793Z,27.06
2023-05-21T16:24:38.618Z,26.51
2023-05-21T16:27:05.666Z,26.58
2023-05-21T16:29:32.388Z,26.35
2023-05-21T16:31:59.106Z,25.77
2023-05-21T16:34:25.898Z,25.76
2023-05-21T16:36:52.571Z,25.41
2023-05-21T16:39:19.460Z,25.15
2023-05-21T16:41:46.104Z,25.22
2023-05-21T16:44:14.654Z,25.01
2023-05-21T16:46:41.603Z,24.93
2023-05-21T16:49:09.802Z,24.77
2023-05-21T16:51:36.370Z,24.55
2023-05-21T16:54:04.733Z,24.65
2023-05-21T16:56:31.889Z,24.65
2023-05-21T16:58:58.661Z,24.41
2023-05-21T17:01:26.039Z,24.32
2023-05-21T17:03:53.385Z,24.04
2023-05-21T17:06:20.250Z,23.92
2023-05-21T17:08:47.390Z,23.52
2023-05-21T17:11:14.062Z,23.58
2023-05-21T17:13:41.111Z,23.12
2023-05-21T17:16:08.023Z,23.09
2023-05-21T17:18:34.783Z,22.95
2023-05-21T17:21:01.385Z,22.80
2023-05-21T17:23:28.136Z,22.56
2023-05-21T17:25:54.691Z,22.28
2023-05-21T17:28:21.725Z,21.98
2023-05-21T17:30:49.643Z,21.89
2023-05-21T17:33:16.745Z,21.95
2023-05-21T17:35:43.504Z,21.82
2023-05-21T17:38:10.471Z,21.59
2023-05-21T17:40:37.387Z,21.55
2023-05-21T17:43:04.878Z,21.44
2023-05-21T17:45:31.865Z,21.22
2023-05-21T17:48:00.492Z,21.18
2023-05-21T17:50:28.027Z,21.10
2023-05-21T17:52:54.687Z,20.91
2023-05-21T17:55:21.681Z,20.74
2023-05-21T17:57:48.432Z,20.63
2023-05-21T18:00:15.442Z,20.53
2023-05-21T18:02:42.279Z,20.52
2023-05-21T18:05:09.298Z,20.43
2023-05-21T18:07:36.960Z,20.35
2023-05-21T18:10:04.090Z,20.32
2023-05-21T18:12:30.698Z,20.21
2023-05-21T18:14:57.541Z,20.00
2023-05-21T18:17:24.370Z,19.98
2023-05-21T18:19:51.162Z,19.87
2023-05-21T18:22:17.860Z,19.82
2023-05-21T18:24:44.684Z,19.65
2023-05-21T18:27:12.294Z,19.52
2023-05-21T18:29:39.161Z,19.42
2023-05-21T18:32:06.364Z,19.42
2023-05-21T18:34:33.509Z,19.21
2023-05-21T18:37:00.634Z,19.07
2023-05-21T18:39:28.061Z,18.89
2023-05-21T18:42:11.385Z,18.81
2023-05-21T18:44:39.553Z,18.70
2023-05-21T18:47:07.812Z,18.65
2023-05-21T18:49:36.241Z,18.38
2023-05-21T18:52:04.512Z,18.30
2023-05-21T18:54:31.332Z,18.18
2023-05-21T18:57:00.515Z,18.07
2023-05-21T18:59:28.671Z,17.97
2023-05-21T19:01:55.614Z,17.87
2023-05-21T19:04:22.485Z,18.03
2023-05-21T19:06:49.417Z,17.82
2023-05-21T19:09:16.165Z,17.65
2023-05-21T19:11:43.171Z,17.56
2023-05-21T19:14:09.766Z,17.47
2023-05-21T19:16:36.717Z,17.36
2023-05-21T19:19:04.308Z,17.25
2023-05-21T19:21:31.416Z,17.27
2023-05-21T19:23:58.937Z,17.27
2023-05-21T19:26:25.585Z,17.21
2023-05-21T19:28:55.440Z,17.12
2023-05-21T19:31:23.617Z,16.97
2023-05-21T19:33:50.859Z,16.94
2023-05-21T19:36:18.479Z,16.85
2023-05-21T19:38:49.653Z,16.87
2023-05-21T19:41:17.171Z,16.75
2023-05-21T19:43:44.730Z,16.81
2023-05-21T19:46:11.668Z,16.64
2023-05-21T19:48:38.760Z,16.50
2023-05-21T19:51:06.227Z,16.43
2023-05-21T19:53:32.808Z,16.52
2023-05-21T19:55:59.863Z,16.47
2023-05-21T19:58:29.626Z,16.38
2023-05-21T20:00:58.477Z,16.35
2023-05-21T20:03:26.624Z,16.30
2023-05-21T20:05:53.552Z,16.28
2023-05-21T20:08:20.697Z,16.26
2023-05-21T20:10:49.521Z,16.23
2023-05-21T20:13:18.395Z,16.19
2023-05-21T20:15:45.111Z,16.11
2023-05-21T20:18:12.718Z,16.03
2023-05-21T20:20:41.350Z,15.96
2023-05-21T20:23:08.551Z,15.88
2023-05-21T20:25:35.892Z,15.85
2023-05-21T20:28:03.074Z,15.85
2023-05-21T20:30:34.200Z,15.78
2023-05-21T20:33:02.437Z,15.67
2023-05-21T20:35:29.456Z,15.62
2023-05-21T20:37:56.237Z,15.56
2023-05-21T20:40:22.874Z,15.52
2023-05-21T20:42:51.833Z,15.42
2023-05-21T20:45:18.640Z,15.33
2023-05-21T20:47:45.369Z,15.43
2023-05-21T20:50:12.275Z,15.36
2023-05-21T20:52:39.410Z,15.34
2023-05-21T20:55:06.402Z,15.35
2023-05-21T20:57:33.261Z,15.29
2023-05-21T21:00:00.031Z,15.15
2023-05-21T21:02:27.092Z,15.08
2023-05-21T21:04:53.979Z,15.01
2023-05-21T21:07:20.946Z,15.02
2023-05-21T21:09:48.994Z,14.99
2023-05-21T21:12:26.222Z,14.88
2023-05-21T21:14:54.225Z,14.73
2023-05-21T21:17:21.225Z,14.60
2023-05-21T21:19:47.901Z,14.56
2023-05-21T21:22:16.001Z,14.44
2023-05-21T21:24:43.117Z,14.48
2023-05-21T21:27:10.085Z,14.43
2023-05-21T21:29:36.686Z,14.40
2023-05-21T21:32:03.486Z,14.42
2023-05-21T21:34:30.243Z,14.42
2023-05-21T21:36:56.847Z,14.48
2023-05-21T21:39:23.938Z,14.53
2023-05-21T21:41:50.623Z,14.41
2023-05-21T21:44:17.342Z,14.32
2023-05-21T21:46:44.366Z,14.18
2023-05-21T21:49:11.056Z,14.06
2023-05-21T21:51:38.067Z,14.07
2023-05-21T21:54:05.003Z,14.07
2023-05-21T21:56:31.564Z,14.00
2023-05-21T21:58:58.268Z,13.93
2023-05-21T22:01:24.964Z,13.85
2023-05-21T22:03:51.633Z,13.88
2023-05-21T22:06:18.372Z,13.87
2023-05-21T22:08:45.099Z,13.69
2023-05-21T22:11:12.136Z,13.43
2023-05-21T22:13:41.644Z,13.24
2023-05-21T22:16:08.216Z,13.21
2023-05-21T22:18:40.162Z,13.21
2023-05-21T22:21:10.132Z,13.20
2023-05-21T22:23:37.944Z,13.22
2023-05-21T22:26:04.877Z,13.27
2023-05-21T22:28:31.501Z,13.30
2023-05-21T22:30:59.081Z,13.13
2023-05-21T22:33:26.975Z,13.11
2023-05-21T22:35:54.388Z,13.13
2023-05-21T22:38:21.525Z,13.02
2023-05-21T22:40:48.605Z,12.89
2023-05-21T22:43:15.250Z,12.80
2023-05-21T22:45:42.330Z,12.78
2023-05-21T22:48:09.541Z,12.83
2023-05-21T22:50:38.838Z,12.88
2023-05-21T22:53:06.865Z,12.89
2023-05-21T22:55:33.612Z,12.91
2023-05-21T22:58:00.236Z,12.84
2023-05-21T23:00:27.277Z,12.81
2023-05-21T23:02:54.666Z,12.67
2023-05-21T23:05:22.371Z,12.72
2023-05-21T23:07:49.417Z,12.44
2023-05-21T23:10:16.080Z,12.31
2023-05-21T23:12:42.833Z,12.19
2023-05-21T23:15:10.811Z,12.12
2023-05-21T23:17:38.229Z,12.07
2023-05-21T23:20:07.256Z,12.07
2023-05-21T23:22:35.043Z,12.09
2023-05-21T23:25:02.023Z,12.04
2023-05-21T23:27:29.178Z,11.92
2023-05-21T23:29:56.508Z,11.86
2023-05-21T23:32:23.743Z,11.87
2023-05-21T23:34:50.823Z,11.89
2023-05-21T23:37:17.651Z,11.90
2023-05-21T23:39:48.389Z,11.93
2023-05-21T23:42:18.601Z,11.96
2023-05-21T23:44:45.504Z,11.98
2023-05-21T23:47:12.359Z,11.96
2023-05-21T23:49:39.460Z,11.83
2023-05-21T23:52:07.048Z,11.75
2023-05-21T23:54:33.843Z,11.74
2023-05-21T23:57:00.888Z,11.76
2023-05-21T23:59:27.579Z,11.80
